Flight Number: EUR3040 Duration: 11:00
Departure: Warsaw Okecie (EPWA) at 08:00 Distance: 4057 Nm
Arrival: Chicago O'Hare (KORD) at 19:00 Equipment: B747

Weather Information
Warszawa-Okecie, Poland (EPWA) 52-10N 020-58E 107M May 20, 2018 - 10:00 AM EDT / 2018.05.20 1400 UTC
Wind: from the N (010 degrees) at 6 MPH (5 KT) (direction variable):0
Visibility: greater than 7 mile(s):0 Temperature: 71 F (22 C) Dew Point: 42 F (6 C) Relative Humidity: 35% Pressure (altimeter): 30.24 in. Hg (1024 hPa)
ob: EPWA 201400Z 01005KT 320V070 CAVOK 22/06 Q1024 NOSIG cycle: 14
Sunrise: 02:38 Sunset: 18:27 (UTC)

CHICAGO O'HARE INTERNATIONAL, IL, United States (KORD) 41-59N 087-55W 200M May 20, 2018 - 09:51 AM EDT / 2018.05.20 1351 UTC
Wind: from the NNE (030 degrees) at 16 MPH (14 KT):0
Visibility: 10 mile(s):0
Sky conditions: overcast Temperature: 45.0 F (7.2 C) Dew Point: 41.0 F (5.0 C) Relative Humidity: 85% Pressure (altimeter): 30.18 in. Hg (1022 hPa)
ob: KORD 201351Z 03014KT 10SM OVC008 07/05 A3018 RMK AO2 SLP222 T00720050 cycle: 14
Sunrise: 10:29 Sunset: 01:07 (UTC)

TAF:2018/05/20 12:42 TAF KORD 201139Z 2012/2118 03012G16KT P6SM SCT007 OVC010 TEMPO 2012/2014 6SM -SHRA OVC007 FM201400 03012KT P6SM VCSH SCT007 OVC015 FM201700 05010KT P6SM SCT007 OVC020 FM202100 05008KT P6SM FEW009 OVC022 PROB30 2109/2113 6SM -SHRA FM211300 08007KT 6SM BR FEW004 SCT007 OVC015

Previous Pireps for this route
Date Aircraft Flight time Fuel used Landing rate On time
2016-05-07B74709.35208501-398Yes
(pireps marked green are flown by you)

Route map